Mitchellville, IA (50169)

8:11 AM CDT on July 29, 2015 (GMT -0500)
Altoona, Iowa Weather | | Change Station
CLOSE
Current Station
Personal Weather Station
Location: Altoona, IA
Elevation: 968 ft
Nearby Weather Stations
Active Advisory: Flood Warning Active Notice: Record Report

Elev 968 ft 41.63 °N, 93.47 °W | Updated 12 seconds ago

Partly Cloudy
Partly Cloudy
71.5 °F
Feels Like 73 °F
N
3.0
Wind Variable Wind from WNW
Gusts 7.0 mph

Today
High -- | Low -- °F
--% Chance of Precip.
Yesterday
High -- | Low -- °F
Precip. -- in
6:04 AM 8:34 PM
Waxing Gibbous, 95% visible
Pressure 30.09 in
Visibility 10.0 miles
Clouds Clear
Heat Index 73 °F
Dew Point 64 °F
Humidity 77%
Rainfall 0.00 in
Snow Depth Not available.
UV 1 out of 12
Pollen 3.20 out of 12
Air Quality Not available.
Flu Activity Not available.
METAR KIKV 291255Z AUTO 32006KT 10SM CLR 22/17 A3009 RMK AO2

More Conditions Fewer Conditions

Pressure 30.09 in
Visibility 10.0 miles
Clouds Clear
Heat Index 73 °F
Dew Point 64 °F
Humidity 77%
Rainfall 0.00 in
Snow Depth Not available.
UV 1 out of 12
Pollen 3.20 out of 12
Air Quality Not available.
Flu Activity Not available.
METAR KIKV 291255Z AUTO 32006KT 10SM CLR 22/17 A3009 RMK AO2

More Conditions Fewer Conditions

10-Day Weather Forecast

×

Almanac

Astronomy

Jul. 29, 2015 Rise Set
Actual Time
Civil Twilight
Nautical Twilight
Astronomical Twilight
Moon
Length of Visible Light
Length of Day
Tomorrow will be .
, % of the Moon is Illuminated

Today's Extremes

State Highs State Lows

Community

WunderPhotos

Upload Photos

1,842,092 photos uploaded!

WunderBlogs® & News

Nearby

Air Quality

  Air Quality AQ Index Pollutant
Not available.

Snow Depth

Station Depth Elevation

Earthquake Activity

City Distance Mag. Time & Date
Minimum magnitude displayed is 2.5.

Coastal Water Temperatures

Place Temperature

Stations

Nearby Weather Stations

Station Location Temp. Windchill Dew Point Humidity Wind Precip. Elev Updated Type
                   
Flood Warning
Statement as of 11:58 PM CDT on July 28, 2015

... Flood Warning in effect until Thursday morning...

The National Weather Service in Des Moines has issued a
* Flood Warning for
the Raccoon river at Des Moines fleur Dr... or from Walnut Creek...
to the Des Moines River.
* Until Thursday morning.
* At 9:45 PM Tuesday the stage was 8.1 feet... or 3.9 feet below
flood stage.
* Flood stage is 12.0 feet.
* No flooding is occurring and minor flooding is forecast.
* Forecast... rise to flood stage Wednesday evening. Continue rising
to 12.1 feet... or 0.1 feet above flood stage... early Thursday
morning. Go below flood stage Thursday morning.
* Impact... at 12.0 feet... George Flagg Parkway is closed from Park
Avenue to southwest 30th street.


Lat... Lon 4157 9361 4156 9368 4158 9367 4159 9362
      4157 9361